Time;durP1;ratioP1;P1;durP2;ratioP2;P2;SDS_P1;SDS_P2;PMS_P1;PMS_P2;Temp;Humidity;BMP_temperature;BMP_pressure;BME280_temperature;BME280_humidity;BME280_pressure;Samples;Min_cycle;Max_cycle;Signal;HPM_P1;HPM_P2
2022/11/06 00:02:24;;;;;;;23.95;11.43;;;;;;;7.76;100.00;101449.66;5010560;28;20149;-74
2022/11/06 00:04:49;;;;;;;25.40;11.88;;;;;;;7.73;100.00;101453.19;5012800;28;20046;-77
2022/11/06 00:07:14;;;;;;;23.55;11.80;;;;;;;7.64;100.00;101455.31;5012975;28;20030;-77
2022/11/06 00:09:40;;;;;;;23.13;11.43;;;;;;;7.70;100.00;101470.50;4995478;28;20034;-76
2022/11/06 00:12:05;;;;;;;25.27;10.88;;;;;;;7.67;100.00;101478.31;5012745;28;20076;-79
2022/11/06 00:14:31;;;;;;;27.25;11.35;;;;;;;7.65;100.00;101475.81;5012796;28;20034;-76
2022/11/06 00:16:56;;;;;;;26.98;12.55;;;;;;;7.60;100.00;101470.03;5012761;28;20044;-74
2022/11/06 00:19:21;;;;;;;24.15;11.95;;;;;;;7.61;100.00;101468.28;5013057;28;20125;-78
2022/11/06 00:21:46;;;;;;;20.17;11.07;;;;;;;7.38;100.00;101441.78;5012863;28;20048;-74
2022/11/06 00:24:14;;;;;;;25.05;12.23;;;;;;;7.53;100.00;101466.03;5012906;28;20034;-78
2022/11/06 00:26:40;;;;;;;25.55;11.40;;;;;;;7.43;100.00;101451.88;5012762;28;20079;-79
2022/11/06 00:29:06;;;;;;;30.60;12.50;;;;;;;7.51;100.00;101465.25;5012786;28;20045;-78
2022/11/06 00:31:37;;;;;;;23.95;11.15;;;;;;;7.51;100.00;101460.13;5012630;28;20038;-78
2022/11/06 00:34:06;;;;;;;24.52;11.27;;;;;;;7.60;100.00;101457.19;5012740;28;20432;-77
2022/11/06 00:36:32;;;;;;;25.13;10.93;;;;;;;7.60;100.00;101434.03;5012712;28;20465;-79
2022/11/06 00:38:58;;;;;;;24.08;11.30;;;;;;;7.75;100.00;101455.69;5012671;28;20033;-80
2022/11/06 00:41:25;;;;;;;23.20;10.02;;;;;;;7.79;100.00;101446.97;4994806;28;20049;-79
2022/11/06 00:43:53;;;;;;;21.13;9.35;;;;;;;7.76;100.00;101424.78;5012427;28;20068;-79
2022/11/06 00:46:19;;;;;;;23.48;10.55;;;;;;;7.84;100.00;101444.22;5012521;28;20026;-78
2022/11/06 00:48:45;;;;;;;20.05;9.15;;;;;;;7.80;100.00;101443.50;5012686;28;20472;-79
2022/11/06 00:51:17;;;;;;;21.95;10.13;;;;;;;7.73;100.00;101448.06;5012549;28;20026;-79
2022/11/06 00:53:44;;;;;;;25.13;9.57;;;;;;;7.52;100.00;101420.66;5012426;28;20124;-79
2022/11/06 00:56:15;;;;;;;18.42;8.93;;;;;;;7.66;100.00;101450.94;5012712;28;20037;-79
2022/11/06 00:58:41;;;;;;;26.85;9.38;;;;;;;7.61;100.00;101453.72;4994655;28;20030;-79
2022/11/06 01:01:09;;;;;;;19.17;8.95;;;;;;;7.55;100.00;101453.94;5012551;28;20075;-79
2022/11/06 01:03:34;;;;;;;20.15;8.90;;;;;;;7.42;100.00;101439.94;5015726;28;20489;-79
2022/11/06 01:06:12;;;;;;;19.98;9.50;;;;;;;7.26;100.00;101421.69;5016371;28;20022;-78
2022/11/06 01:08:38;;;;;;;19.77;8.85;;;;;;;7.51;100.00;101452.41;5016005;28;20034;-78
2022/11/06 01:11:12;;;;;;;17.20;8.60;;;;;;;7.31;100.00;101406.13;5015903;28;20087;-74
2022/11/06 01:13:37;;;;;;;19.35;9.48;;;;;;;7.49;100.00;101436.22;5015541;28;20037;-72
2022/11/06 01:16:05;;;;;;;18.02;9.35;;;;;;;7.54;100.00;101451.44;5015841;28;20026;-74
2022/11/06 01:18:31;;;;;;;21.48;9.40;;;;;;;7.50;100.00;101442.19;5015525;28;20022;-73
2022/11/06 01:20:56;;;;;;;22.48;8.60;;;;;;;7.37;100.00;101421.28;5015714;28;20048;-72
2022/11/06 01:23:21;;;;;;;26.60;9.25;;;;;;;7.47;100.00;101430.28;5015761;28;20100;-75
2022/11/06 01:26:01;;;;;;;22.90;8.65;;;;;;;7.40;100.00;101428.88;4998039;28;20030;-73
2022/11/06 01:28:27;;;;;;;24.52;9.25;;;;;;;7.42;100.00;101435.63;5015283;28;20038;-73
2022/11/06 01:30:53;;;;;;;18.80;8.25;;;;;;;7.45;100.00;101432.91;5015546;28;20030;-74
2022/11/06 01:33:18;;;;;;;23.63;8.18;;;;;;;7.31;100.00;101395.84;5015476;28;20496;-73
2022/11/06 01:35:45;;;;;;;16.02;8.70;;;;;;;7.50;100.00;101414.75;5015438;28;20026;-74
2022/11/06 01:38:11;;;;;;;21.92;8.73;;;;;;;7.53;100.00;101406.09;4997515;28;20104;-73
2022/11/06 01:40:42;;;;;;;20.58;7.85;;;;;;;7.61;100.00;101417.72;5015353;28;20454;-74
2022/11/06 01:43:14;;;;;;;22.90;7.57;;;;;;;7.55;100.00;101392.25;5014977;28;20026;-74
2022/11/06 01:45:43;;;;;;;22.20;8.23;;;;;;;7.61;100.00;101398.91;5015137;28;20018;-73
2022/11/06 01:48:09;;;;;;;17.52;7.95;;;;;;;7.79;100.00;101402.44;5015288;28;20030;-75
2022/11/06 01:50:34;;;;;;;30.88;8.63;;;;;;;7.72;100.00;101384.69;5015216;28;20025;-74
2022/11/06 01:53:01;;;;;;;22.80;8.13;;;;;;;7.88;100.00;101408.03;5014947;28;20037;-74
2022/11/06 01:55:31;;;;;;;18.17;7.00;;;;;;;7.92;100.00;101404.41;5014992;28;20029;-74
2022/11/06 01:57:58;;;;;;;21.00;7.28;;;;;;;7.92;100.00;101406.16;5015228;28;20022;-76
2022/11/06 02:00:23;;;;;;;18.83;6.78;;;;;;;7.99;100.00;101412.72;5014640;28;20101;-73
2022/11/06 02:02:49;;;;;;;18.08;6.93;;;;;;;7.88;100.00;101372.03;5015077;28;20160;-74
2022/11/06 02:05:16;;;;;;;14.88;6.82;;;;;;;8.05;100.00;101391.84;5014725;28;20104;-75
2022/11/06 02:07:42;;;;;;;20.92;7.10;;;;;;;8.03;100.00;101388.53;5014908;28;20132;-73
2022/11/06 02:10:08;;;;;;;17.40;7.15;;;;;;;8.09;100.00;101395.16;5014683;28;20026;-75
2022/11/06 02:12:57;;;;;;;20.02;7.25;;;;;;;8.09;100.00;101388.28;5014261;28;20044;-74
2022/11/06 02:15:44;;;;;;;19.58;6.72;;;;;;;8.14;100.00;101395.78;5014433;28;20030;-75
2022/11/06 02:18:46;;;;;;;18.88;7.03;;;;;;;8.16;100.00;101383.66;5014720;28;20034;-75
2022/11/06 02:21:49;;;;;;;21.95;7.43;;;;;;;8.16;100.00;101384.53;5014577;28;20064;-76
2022/11/06 02:24:36;;;;;;;17.10;7.40;;;;;;;8.19;100.00;101380.97;4916096;29;20479;-73
2022/11/06 02:27:09;;;;;;;19.38;6.70;;;;;;;8.08;100.00;101350.59;4915694;29;20107;-75
2022/11/06 02:29:43;;;;;;;19.75;6.97;;;;;;;8.22;100.00;101363.66;4915683;29;20036;-74
2022/11/06 02:32:17;;;;;;;19.52;5.90;;;;;;;8.22;100.00;101368.81;4915790;29;20039;-75
2022/11/06 02:34:45;;;;;;;20.33;7.35;;;;;;;8.21;100.00;101374.03;4915866;29;20046;-74
2022/11/06 02:37:16;;;;;;;18.83;6.60;;;;;;;8.18;100.00;101371.59;4916144;29;20032;-75
2022/11/06 02:39:45;;;;;;;15.00;6.25;;;;;;;8.17;100.00;101363.03;4915899;29;20464;-74
2022/11/06 02:42:15;;;;;;;23.38;6.57;;;;;;;8.19;100.00;101362.97;4899824;29;20390;-75
2022/11/06 02:44:42;;;;;;;19.75;6.22;;;;;;;8.22;100.00;101363.66;4915857;29;20036;-75
2022/11/06 02:47:10;;;;;;;25.60;6.85;;;;;;;8.16;100.00;101345.94;4915492;29;20079;-75
2022/11/06 02:49:50;;;;;;;24.50;5.85;;;;;;;8.22;100.00;101358.50;4915583;29;20059;-75
2022/11/06 02:52:22;;;;;;;20.90;6.15;;;;;;;8.22;100.00;101361.09;4915352;29;20337;-75
2022/11/06 02:54:56;;;;;;;18.20;5.60;;;;;;;8.19;100.00;101353.53;4956762;28;20072;-77
2022/11/06 02:57:25;;;;;;;19.83;5.60;;;;;;;8.20;100.00;101350.03;5014186;28;20100;-79
2022/11/06 03:00:01;;;;;;;25.98;6.28;;;;;;;8.19;100.00;101357.81;5013951;28;20462;-80
2022/11/06 03:02:36;;;;;;;17.98;6.15;;;;;;;8.14;100.00;101360.59;5013923;28;20021;-75
2022/11/06 03:05:14;;;;;;;18.95;6.03;;;;;;;8.05;100.00;101351.53;5013690;28;20049;-77
2022/11/06 03:07:59;;;;;;;18.20;6.72;;;;;;;8.05;100.00;101356.69;5013781;28;20049;-78
2022/11/06 03:10:31;;;;;;;19.00;5.80;;;;;;;7.95;100.00;101344.28;5013580;28;20022;-78
2022/11/06 03:13:13;;;;;;;12.40;5.60;;;;;;;8.09;100.00;101367.69;5013595;28;20038;-79
2022/11/06 03:15:54;;;;;;;18.88;6.55;;;;;;;8.12;100.00;101375.25;5013502;28;20026;-79
2022/11/06 03:18:31;;;;;;;16.75;5.55;;;;;;;8.04;100.00;101365.31;5014135;28;20438;-79
2022/11/06 03:21:06;;;;;;;18.67;6.07;;;;;;;8.20;100.00;101365.47;5013565;28;20492;-78
2022/11/06 03:23:38;;;;;;;17.88;5.93;;;;;;;8.22;100.00;101350.78;5013410;28;20026;-79
2022/11/06 03:26:03;;;;;;;;;;;;;;;8.21;100.00;101348.28;5013283;28;20076;-79
2022/11/06 03:28:33;;;;;;;21.92;6.25;;;;;;;8.13;100.00;101347.81;5013571;28;19917;-79
2022/11/06 03:31:04;;;;;;;16.55;5.93;;;;;;;8.07;100.00;101335.22;5013386;28;20032;-79
2022/11/06 03:33:38;;;;;;;17.30;6.03;;;;;;;8.01;100.00;101332.00;5013434;28;20371;-80
2022/11/06 03:36:21;;;;;;;17.77;6.40;;;;;;;7.96;100.00;101336.53;5013378;28;20029;-79
2022/11/06 03:38:51;;;;;;;17.60;5.88;;;;;;;7.88;100.00;101318.03;5013593;28;20504;-79
2022/11/06 03:41:37;;;;;;;20.40;6.47;;;;;;;7.88;100.00;101299.19;5013205;28;20077;-79
2022/11/06 03:44:05;;;;;;;16.42;6.22;;;;;;;8.05;100.00;101319.84;5013451;28;20127;-79
2022/11/06 03:46:36;;;;;;;29.55;7.65;;;;;;;8.07;100.00;101318.06;5013249;28;20393;-77
2022/11/06 03:49:08;;;;;;;17.98;5.80;;;;;;;7.95;100.00;101303.16;5013215;28;20482;-78
2022/11/06 03:51:52;;;;;;;17.63;5.97;;;;;;;7.96;100.00;101297.09;5013297;28;20022;-77
2022/11/06 03:54:20;;;;;;;16.63;5.20;;;;;;;8.12;100.00;101305.81;5013270;28;20470;-78
2022/11/06 03:56:53;;;;;;;16.15;5.82;;;;;;;8.17;100.00;101303.88;5013253;28;20022;-78
2022/11/06 03:59:22;;;;;;;18.70;6.43;;;;;;;8.21;100.00;101289.97;4995723;28;20119;-78
2022/11/06 04:01:49;;;;;;;15.50;5.50;;;;;;;8.09;100.00;101275.09;4995329;28;20134;-77
2022/11/06 04:04:34;;;;;;;17.08;5.68;;;;;;;8.28;100.00;101290.53;5012804;28;20104;-78
2022/11/06 04:07:09;;;;;;;13.48;5.40;;;;;;;8.30;100.00;101297.25;5013081;28;20089;-78
2022/11/06 04:13:56;;;;;;;15.48;5.00;;;;;;;8.25;100.00;101294.03;5032667;28;20099;-78
2022/11/06 04:15:34;;;;;;;18.60;5.93;;;;;;;8.21;100.00;101291.69;5032449;28;20564;-77
2022/11/06 04:17:59;;;;;;;;;;;;;;;8.28;100.00;101291.34;5033231;28;20032;-76
2022/11/06 04:23:45;;;;;;;19.65;5.65;;;;;;;8.22;100.00;101272.78;5032902;28;20550;-78
2022/11/06 04:26:35;;;;;;;19.67;6.10;;;;;;;8.26;100.00;101272.59;5032693;28;20032;-77
2022/11/06 04:29:15;;;;;;;19.33;6.07;;;;;;;8.27;100.00;101270.84;5032487;28;20060;-77
2022/11/06 04:31:55;;;;;;;19.67;6.15;;;;;;;8.24;100.00;101260.69;5032415;28;20045;-78
2022/11/06 04:34:42;;;;;;;17.90;6.03;;;;;;;8.21;100.00;101260.81;5032595;28;20045;-77
2022/11/06 04:37:29;;;;;;;17.70;6.47;;;;;;;8.14;100.00;101256.84;5034087;28;20488;-76
2022/11/06 04:40:10;;;;;;;17.40;5.70;;;;;;;8.04;100.00;101254.72;5018694;28;20048;-76
2022/11/06 04:42:42;;;;;;;15.93;6.03;;;;;;;7.71;100.00;101210.78;5036405;28;20045;-79
2022/11/06 04:45:20;;;;;;;15.43;5.18;;;;;;;7.81;100.00;101248.94;5036562;28;20025;-79
2022/11/06 04:47:47;;;;;;;17.30;5.78;;;;;;;7.75;100.00;101239.75;5035959;28;20025;-78
2022/11/06 04:50:17;;;;;;;16.85;6.07;;;;;;;7.76;100.00;101255.09;5036544;28;20034;-78
2022/11/06 04:52:43;;;;;;;21.95;6.13;;;;;;;7.64;100.00;101234.25;5036479;28;20033;-78
2022/11/06 04:55:09;;;;;;;16.85;6.55;;;;;;;7.68;100.00;101244.34;5036223;28;20053;-76
2022/11/06 04:57:34;;;;;;;19.13;6.03;;;;;;;7.64;100.00;101239.41;5036422;28;20168;-79
2022/11/06 04:59:59;;;;;;;22.58;7.07;;;;;;;7.49;100.00;101225.50;5036129;28;20044;-79
2022/11/06 05:02:25;;;;;;;15.95;6.35;;;;;;;7.43;100.00;101226.59;5035779;28;20034;-76
2022/11/06 05:04:50;;;;;;;14.77;5.68;;;;;;;7.52;100.00;101243.34;5014912;28;20068;-76
2022/11/06 05:07:16;;;;;;;22.50;6.15;;;;;;;7.46;100.00;101238.47;5016231;28;20026;-74
2022/11/06 05:09:42;;;;;;;19.98;6.70;;;;;;;7.44;100.00;101233.41;5016314;28;20033;-75
2022/11/06 05:12:07;;;;;;;15.73;6.70;;;;;;;7.47;100.00;101237.56;5016335;28;20093;-75
2022/11/06 05:14:32;;;;;;;17.90;6.70;;;;;;;7.45;100.00;101234.22;5016028;28;20501;-74
2022/11/06 05:16:58;;;;;;;15.02;6.50;;;;;;;7.33;100.00;101215.03;5015751;28;20034;-75
2022/11/06 05:19:23;;;;;;;23.15;6.72;;;;;;;7.36;100.00;101219.22;5015676;28;20029;-74
2022/11/06 05:24:32;;;;;;;19.08;7.10;;;;;;;7.37;100.00;101224.28;5015868;28;20107;-74
2022/11/06 05:26:57;;;;;;;19.10;6.72;;;;;;;7.33;100.00;101227.06;5015844;28;20373;-74
2022/11/06 05:29:23;;;;;;;19.92;7.15;;;;;;;7.32;100.00;101222.81;5015679;28;20022;-75
2022/11/06 05:31:48;;;;;;;18.23;6.38;;;;;;;7.06;100.00;101186.22;5015558;28;20036;-73
2022/11/06 05:34:13;;;;;;;27.00;7.10;;;;;;;7.27;100.00;101235.84;5015348;28;20030;-74
2022/11/06 05:36:38;;;;;;;23.63;6.95;;;;;;;7.23;100.00;101220.66;5015723;28;20030;-74
2022/11/06 05:39:04;;;;;;;21.83;7.15;;;;;;;7.17;100.00;101207.16;5015638;28;20046;-74
2022/11/06 05:41:29;;;;;;;21.80;6.97;;;;;;;7.24;100.00;101207.72;5015607;28;20382;-73
2022/11/06 05:43:54;;;;;;;20.85;7.13;;;;;;;7.35;100.00;101223.50;5015534;28;20025;-73
2022/11/06 05:46:20;;;;;;;21.35;6.70;;;;;;;7.35;100.00;101223.50;5015646;28;20033;-74
2022/11/06 05:48:45;;;;;;;17.83;7.25;;;;;;;7.31;100.00;101204.00;5014734;28;20045;-74
2022/11/06 05:51:10;;;;;;;15.73;6.38;;;;;;;7.42;100.00;101218.94;5015538;28;20029;-73
2022/11/06 05:53:36;;;;;;;19.27;7.00;;;;;;;7.42;100.00;101211.25;5015306;28;20449;-74
2022/11/06 05:56:03;;;;;;;16.10;6.65;;;;;;;7.43;100.00;101202.63;5015388;28;20030;-74
2022/11/06 05:58:29;;;;;;;27.98;7.22;;;;;;;7.23;100.00;101156.44;5015322;28;20441;-74
2022/11/06 06:00:55;;;;;;;19.90;6.75;;;;;;;7.44;100.00;101188.88;5015415;28;20022;-75
2022/11/06 06:03:21;;;;;;;17.58;6.95;;;;;;;7.40;100.00;101180.47;5014852;28;20440;-74
2022/11/06 06:05:47;;;;;;;19.65;7.18;;;;;;;7.43;100.00;101174.38;5030745;28;20042;-74
2022/11/06 06:08:12;;;;;;;19.52;7.07;;;;;;;7.56;100.00;101187.50;5035194;28;20065;-73
2022/11/06 06:10:41;;;;;;;15.07;6.35;;;;;;;7.57;100.00;101194.31;5034753;28;20124;-75
2022/11/06 06:13:06;;;;;;;18.50;7.53;;;;;;;7.52;100.00;101180.84;5034485;28;20041;-78
2022/11/06 06:15:32;;;;;;;13.98;5.78;;;;;;;7.50;100.00;101167.22;5034677;28;20029;-78
2022/11/06 06:17:57;;;;;;;24.65;7.40;;;;;;;7.62;100.00;101180.34;5034499;28;20029;-79
2022/11/06 06:20:23;;;;;;;13.43;6.18;;;;;;;7.69;100.00;101188.63;5034546;28;20022;-78
2022/11/06 06:22:53;;;;;;;19.73;6.55;;;;;;;7.59;100.00;101167.66;5034500;28;20112;-79
2022/11/06 06:25:18;;;;;;;17.40;6.20;;;;;;;7.56;100.00;101159.22;5034656;28;20389;-79
2022/11/06 06:27:43;;;;;;;26.05;7.25;;;;;;;7.60;100.00;101161.59;5034601;28;20030;-78
2022/11/06 06:30:09;;;;;;;16.35;6.50;;;;;;;7.67;100.00;101172.44;5034591;28;20033;-80
2022/11/06 06:32:35;;;;;;;15.95;6.10;;;;;;;7.75;100.00;101189.16;5034268;28;20029;-80
2022/11/06 06:35:00;;;;;;;16.80;6.53;;;;;;;7.78;100.00;101187.38;5034025;28;20097;-80
2022/11/06 06:37:25;;;;;;;16.77;5.57;;;;;;;7.66;100.00;101165.63;5034451;28;20039;-81
2022/11/06 06:39:51;;;;;;;15.25;5.40;;;;;;;7.78;100.00;101171.97;5034324;28;20021;-79
2022/11/06 06:42:16;;;;;;;18.60;6.78;;;;;;;7.86;100.00;101188.69;5016293;28;20222;-81
2022/11/06 06:44:41;;;;;;;13.45;5.60;;;;;;;7.92;100.00;101198.69;5034113;28;20036;-79
2022/11/06 06:47:06;;;;;;;21.00;5.35;;;;;;;7.85;100.00;101187.00;5034159;28;20022;-80
2022/11/06 06:49:32;;;;;;;16.67;6.35;;;;;;;7.84;100.00;101180.22;5033702;28;20071;-77
2022/11/06 06:51:57;;;;;;;15.48;5.82;;;;;;;7.75;100.00;101153.19;5034071;28;20044;-80
2022/11/06 06:54:22;;;;;;;15.73;6.00;;;;;;;7.97;100.00;101183.06;5033717;28;20177;-78
2022/11/06 06:56:48;;;;;;;14.38;5.63;;;;;;;7.98;100.00;101177.03;5033991;28;20036;-79
2022/11/06 06:59:14;;;;;;;17.20;5.32;;;;;;;7.98;100.00;101171.88;5033238;28;20073;-80
2022/11/06 07:01:39;;;;;;;18.55;6.05;;;;;;;7.88;100.00;101150.91;5033883;28;20076;-80
2022/11/06 07:04:05;;;;;;;18.50;5.38;;;;;;;7.95;100.00;101170.25;5033434;28;20358;-75
2022/11/06 07:06:30;;;;;;;15.63;5.22;;;;;;;7.91;100.00;101160.19;5034128;28;20040;-78
2022/11/06 07:08:55;;;;;;;18.52;6.38;;;;;;;8.06;100.00;101177.47;5033558;28;20072;-78
2022/11/06 07:11:21;;;;;;;16.70;5.72;;;;;;;8.17;100.00;101171.84;5033744;28;20132;-77
2022/11/06 07:13:46;;;;;;;16.50;6.43;;;;;;;8.29;100.00;101173.81;5033652;28;20025;-79
2022/11/06 07:16:12;;;;;;;20.92;6.90;;;;;;;8.41;100.00;101165.53;5033493;28;20033;-80
2022/11/06 07:18:38;;;;;;;10.75;4.60;;;;;;;8.53;100.00;101159.78;5033514;28;20029;-80
2022/11/06 07:21:06;;;;;;;15.48;5.07;;;;;;;8.64;100.00;101159.25;5033287;28;20040;-80
2022/11/06 07:23:33;;;;;;;23.58;5.70;;;;;;;8.61;100.00;101129.38;5033767;28;20090;-80
2022/11/06 07:25:58;;;;;;;14.38;5.65;;;;;;;8.83;100.00;101154.84;5033603;28;20072;-80
2022/11/06 07:28:24;;;;;;;14.77;5.40;;;;;;;8.93;100.00;101157.81;5033555;28;20029;-80
2022/11/06 07:30:49;;;;;;;13.73;4.95;;;;;;;9.03;100.00;101156.41;5033418;28;20026;-79
2022/11/06 07:33:14;;;;;;;12.57;4.60;;;;;;;9.01;100.00;101142.78;5033257;28;20029;-79
2022/11/06 07:35:40;;;;;;;16.27;5.20;;;;;;;9.18;100.00;101162.53;5032878;28;20104;-79
2022/11/06 07:38:08;;;;;;;16.02;5.10;;;;;;;9.24;99.62;101167.34;5033277;28;20029;-81
2022/11/06 07:40:34;;;;;;;19.10;5.40;;;;;;;9.28;99.74;101155.16;5015180;28;20171;-81
2022/11/06 07:43:07;;;;;;;20.75;5.43;;;;;;;9.31;99.00;101155.81;5033047;28;20499;-81
2022/11/06 07:45:33;;;;;;;12.73;5.30;;;;;;;9.27;99.33;101149.19;5033237;28;20034;-81
2022/11/06 07:47:58;;;;;;;10.80;4.30;;;;;;;9.36;98.71;101156.44;5033099;28;20376;-81
2022/11/06 07:50:24;;;;;;;17.45;4.65;;;;;;;9.25;98.56;101138.13;5032749;28;20030;-80
2022/11/06 07:52:50;;;;;;;10.63;4.78;;;;;;;9.28;98.93;101140.53;5033092;28;20025;-79
2022/11/06 07:55:15;;;;;;;14.70;5.43;;;;;;;9.38;98.76;101140.88;5033256;28;20033;-80
2022/11/06 07:57:40;;;;;;;14.98;4.95;;;;;;;9.30;98.25;101119.84;5032699;28;20025;-73
2022/11/06 08:00:07;;;;;;;11.50;4.82;;;;;;;9.38;98.34;101123.66;5032322;28;20030;-77
2022/11/06 08:02:32;;;;;;;15.55;4.68;;;;;;;9.39;97.79;101120.19;5032926;28;20453;-77
2022/11/06 08:04:57;;;;;;;15.00;4.32;;;;;;;9.50;97.69;101124.75;5032368;28;20121;-78
2022/11/06 08:07:22;;;;;;;13.32;5.53;;;;;;;9.44;97.34;101130.25;5032574;28;20121;-79
2022/11/06 08:09:48;;;;;;;15.30;4.55;;;;;;;9.38;97.72;101143.47;5032854;28;20030;-80
2022/11/06 08:12:13;;;;;;;18.48;5.32;;;;;;;9.12;98.32;101111.31;5035996;28;20030;-80
2022/11/06 08:14:40;;;;;;;12.55;4.25;;;;;;;9.19;98.39;101118.66;5036890;28;20381;-77
2022/11/06 08:17:05;;;;;;;14.68;4.78;;;;;;;9.40;98.80;101141.63;5036716;28;20033;-80
2022/11/06 08:19:30;;;;;;;16.90;4.60;;;;;;;9.44;98.60;101138.81;5036639;28;20021;-79
2022/11/06 08:21:56;;;;;;;13.25;4.40;;;;;;;9.48;98.25;101145.47;5036471;28;20108;-76
2022/11/06 08:24:21;;;;;;;24.30;5.45;;;;;;;9.41;97.96;101118.34;5036856;28;20095;-80
2022/11/06 08:26:46;;;;;;;17.58;4.18;;;;;;;9.56;97.90;101129.59;5036635;28;20124;-80
2022/11/06 08:29:12;;;;;;;12.15;4.88;;;;;;;9.61;97.57;101127.59;5036899;28;20030;-74
2022/11/06 08:31:37;;;;;;;15.35;4.75;;;;;;;9.70;97.59;101121.09;5036616;28;20022;-76
2022/11/06 08:34:03;;;;;;;9.90;4.20;;;;;;;9.65;96.95;101100.75;5036068;28;20330;-80
2022/11/06 08:36:28;;;;;;;12.43;4.68;;;;;;;9.74;96.70;101115.72;5036120;28;20026;-80
2022/11/06 08:38:53;;;;;;;20.80;4.80;;;;;;;9.88;96.46;101112.34;5018780;28;20026;-80
2022/11/06 08:41:19;;;;;;;11.65;4.25;;;;;;;9.97;96.39;101108.44;5036766;28;20033;-78
2022/11/06 08:43:44;;;;;;;14.65;3.83;;;;;;;10.05;95.74;101106.25;5036570;28;20057;-78
2022/11/06 08:46:10;;;;;;;13.80;4.80;;;;;;;10.14;94.62;101107.50;5036282;28;20530;-78
2022/11/06 08:48:36;;;;;;;17.63;4.20;;;;;;;10.12;94.30;101092.06;5036394;28;20508;-78
2022/11/06 08:51:03;;;;;;;10.63;3.55;;;;;;;10.30;93.16;101103.13;5036127;28;20033;-80
2022/11/06 08:53:28;;;;;;;11.82;4.00;;;;;;;10.32;92.98;101093.56;5036069;28;20069;-74
2022/11/06 08:55:53;;;;;;;13.05;4.18;;;;;;;10.19;92.74;101074.50;5036280;28;20045;-71
2022/11/06 08:58:19;;;;;;;13.40;4.22;;;;;;;10.44;92.93;101098.03;5036292;28;20033;-75
2022/11/06 09:00:44;;;;;;;13.73;3.78;;;;;;;10.46;92.38;101082.44;5035971;28;20560;-76
2022/11/06 09:03:13;;;;;;;16.25;4.35;;;;;;;10.51;92.00;101078.66;5036301;28;20037;-76
2022/11/06 09:05:40;;;;;;;15.75;3.75;;;;;;;10.59;91.07;101083.38;5035930;28;20049;-78
2022/11/06 09:08:06;;;;;;;15.13;4.43;;;;;;;10.62;90.86;101078.88;5035922;28;20025;-71
2022/11/06 09:10:32;;;;;;;16.58;4.35;;;;;;;10.44;90.56;101046.38;5036016;28;20045;-73
2022/11/06 09:12:58;;;;;;;10.88;3.83;;;;;;;10.60;90.94;101067.78;5036041;28;20033;-72
2022/11/06 09:15:23;;;;;;;17.52;4.10;;;;;;;10.32;90.94;101008.38;5035662;28;20064;-72
2022/11/06 09:17:50;;;;;;;14.48;4.15;;;;;;;10.52;90.15;101031.28;5035994;28;20465;-74
2022/11/06 09:20:17;;;;;;;19.15;4.30;;;;;;;10.68;90.75;101053.59;5036001;28;20057;-72
2022/11/06 09:22:44;;;;;;;12.95;4.65;;;;;;;10.72;90.55;101053.34;5034653;28;20114;-72
2022/11/06 09:25:10;;;;;;;12.27;3.85;;;;;;;10.76;90.12;101057.38;5035635;28;20137;-73
2022/11/06 09:27:43;;;;;;;11.63;3.78;;;;;;;10.80;90.25;101056.25;5035558;28;20100;-73
2022/11/06 09:30:11;;;;;;;10.55;3.83;;;;;;;10.86;89.32;101045.56;5035738;28;20362;-74
2022/11/06 09:32:37;;;;;;;14.00;3.92;;;;;;;10.86;88.77;101030.06;5035711;28;20033;-73
2022/11/06 09:35:03;;;;;;;13.60;3.88;;;;;;;11.03;89.18;101034.22;5035878;28;20358;-74
2022/11/06 09:37:29;;;;;;;16.08;3.65;;;;;;;11.09;88.63;101023.47;5035475;28;20029;-73
2022/11/06 09:39:54;;;;;;;12.68;3.95;;;;;;;11.27;87.41;101024.09;5034983;28;20491;-73
2022/11/06 09:42:43;;;;;;;14.85;3.67;;;;;;;11.49;86.91;101037.31;5035233;28;20535;-72
2022/11/06 09:45:21;;;;;;;11.52;3.63;;;;;;;11.69;85.57;101038.63;5035482;28;20025;-73
2022/11/06 09:47:52;;;;;;;7.13;3.30;;;;;;;11.68;83.99;101023.22;5035501;28;20051;-75
2022/11/06 09:50:24;;;;;;;10.38;3.13;;;;;;;11.83;84.79;101026.63;5035025;28;20103;-73
2022/11/06 09:52:58;;;;;;;14.05;4.45;;;;;;;11.90;84.11;101025.31;5034938;28;20021;-75
2022/11/06 09:55:29;;;;;;;11.45;3.30;;;;;;;12.04;83.53;101035.56;5035126;28;20033;-71
2022/11/06 09:58:09;;;;;;;;;;;;;;;12.18;84.84;101027.69;5035443;28;20064;-73
2022/11/06 10:00:34;;;;;;;11.30;3.30;;;;;;;12.12;82.26;101017.78;5035062;28;19920;-72
2022/11/06 10:03:11;;;;;;;11.65;3.38;;;;;;;12.03;82.49;101015.78;5034936;28;20147;-75
2022/11/06 10:05:38;;;;;;;18.83;3.25;;;;;;;11.98;82.16;101026.44;5033427;28;20091;-70
2022/11/06 10:08:14;;;;;;;7.78;3.10;;;;;;;11.87;82.60;101021.13;5034792;28;20104;-72
2022/11/06 10:10:56;;;;;;;8.68;2.83;;;;;;;11.88;83.14;101021.97;5035056;28;20163;-71
2022/11/06 10:13:25;;;;;;;11.48;2.88;;;;;;;11.91;82.10;101017.44;5034440;28;20033;-71
2022/11/06 10:15:59;;;;;;;10.40;3.40;;;;;;;11.99;82.59;101016.91;5034586;28;20037;-71
2022/11/06 10:19:12;;;;;;;13.65;4.20;;;;;;;12.07;83.23;101018.06;5034732;28;20025;-73
2022/11/06 10:21:43;;;;;;;11.80;3.03;;;;;;;12.06;81.93;101007.81;4954335;29;20046;-71
2022/11/06 10:24:22;;;;;;;10.90;3.10;;;;;;;12.04;83.22;100994.97;4953927;29;20126;-73
2022/11/06 10:26:54;;;;;;;12.75;3.15;;;;;;;12.07;82.57;100997.34;4954271;29;20106;-73
2022/11/06 10:29:34;;;;;;;13.70;3.17;;;;;;;11.86;81.51;100980.66;4954188;29;20090;-73
2022/11/06 10:32:13;;;;;;;12.50;3.45;;;;;;;11.87;81.83;101003.03;4954184;29;20035;-70
2022/11/06 10:34:45;;;;;;;14.30;3.28;;;;;;;11.71;81.56;101000.59;4954352;28;20109;-73
2022/11/06 10:37:17;;;;;;;9.68;3.00;;;;;;;11.59;82.46;100995.34;4954123;29;20427;-73
2022/11/06 10:39:43;;;;;;;12.68;2.78;;;;;;;11.37;82.99;100977.81;4953807;29;20090;-78
2022/11/06 10:42:30;;;;;;;13.13;3.83;;;;;;;11.48;83.44;100996.03;4954061;29;20118;-73
2022/11/06 10:45:14;;;;;;;11.70;2.92;;;;;;;11.56;83.75;100986.03;4953824;29;20043;-76
2022/11/06 10:48:12;;;;;;;8.15;2.90;;;;;;;11.68;83.63;100967.13;4953907;29;20123;-73
2022/11/06 10:51:18;;;;;;;9.70;3.38;;;;;;;11.63;82.21;100937.34;4878528;29;20417;-73
2022/11/06 10:54:10;;;;;;;12.45;3.33;;;;;;;11.91;81.88;100955.31;4877738;29;20033;-72
2022/11/06 10:56:39;;;;;;;10.30;3.53;;;;;;;12.03;80.86;100954.50;4892352;29;20419;-73
2022/11/06 10:59:05;;;;;;;10.93;3.88;;;;;;;12.09;80.57;100953.25;4934668;29;20337;-73
2022/11/06 11:01:30;;;;;;;14.57;4.43;;;;;;;12.11;79.92;100961.75;4934579;29;20036;-73
2022/11/06 11:03:56;;;;;;;15.35;4.25;;;;;;;12.11;80.02;100954.00;4934414;29;20567;-73
2022/11/06 11:06:21;;;;;;;14.18;3.40;;;;;;;12.20;80.59;100953.38;4934501;29;20509;-72
2022/11/06 11:08:49;;;;;;;17.30;3.80;;;;;;;12.16;79.71;100920.84;4934181;29;20063;-73
2022/11/06 11:11:14;;;;;;;13.38;3.30;;;;;;;12.35;78.51;100936.78;4934588;29;20072;-73
2022/11/06 11:13:39;;;;;;;14.13;4.63;;;;;;;12.32;78.24;100928.41;4934249;29;20048;-74
2022/11/06 11:16:24;;;;;;;11.23;3.30;;;;;;;12.20;79.19;100921.47;4934351;29;20028;-75
2022/11/06 11:18:50;;;;;;;10.57;3.47;;;;;;;12.29;79.25;100926.00;4934356;29;20055;-77
2022/11/06 11:21:18;;;;;;;15.30;3.97;;;;;;;12.28;78.50;100938.13;4934117;29;20059;-73
2022/11/06 11:24:08;;;;;;;16.10;3.13;;;;;;;12.23;78.98;100929.84;4933869;29;20035;-73
2022/11/06 11:26:43;;;;;;;19.52;4.55;;;;;;;12.16;78.54;100931.19;4967800;28;20033;-77
2022/11/06 11:29:23;;;;;;;12.32;3.92;;;;;;;12.10;78.13;100923.88;5033037;28;20100;-70
2022/11/06 11:31:53;;;;;;;13.40;3.55;;;;;;;11.92;78.94;100892.28;5033392;28;20032;-72
2022/11/06 11:34:23;;;;;;;15.13;4.30;;;;;;;11.94;78.09;100903.34;5033193;28;20052;-73
2022/11/06 11:36:53;;;;;;;11.07;3.88;;;;;;;11.95;77.91;100905.00;5033385;28;20033;-73
2022/11/06 11:39:22;;;;;;;13.15;3.88;;;;;;;12.05;77.62;100910.38;5033262;28;20025;-72
2022/11/06 11:41:48;;;;;;;13.50;3.30;;;;;;;12.22;78.27;100894.53;5033256;28;20025;-73